sensor_id;sensor_type;location;lat;lon;timestamp;temperature;humidity
21429;DHT22;10875;50.444;30.540;2022-08-07T00:00:53;22.70;99.90
21429;DHT22;10875;50.444;30.540;2022-08-07T00:03:18;22.70;99.90
21429;DHT22;10875;50.444;30.540;2022-08-07T00:05:44;22.70;99.90
21429;DHT22;10875;50.444;30.540;2022-08-07T00:08:10;22.70;99.90
21429;DHT22;10875;50.444;30.540;2022-08-07T00:10:35;22.60;99.90
21429;DHT22;10875;50.444;30.540;2022-08-07T00:13:04;22.60;99.90
21429;DHT22;10875;50.444;30.540;2022-08-07T00:15:31;22.60;99.90
21429;DHT22;10875;50.444;30.540;2022-08-07T00:17:57;22.60;99.90
21429;DHT22;10875;50.444;30.540;2022-08-07T00:20:23;22.70;99.90
21429;DHT22;10875;50.444;30.540;2022-08-07T00:22:48;22.70;99.90
21429;DHT22;10875;50.444;30.540;2022-08-07T00:25:14;22.70;99.90
21429;DHT22;10875;50.444;30.540;2022-08-07T00:27:40;22.70;99.90
21429;DHT22;10875;50.444;30.540;2022-08-07T00:30:06;22.70;99.90
21429;DHT22;10875;50.444;30.540;2022-08-07T00:32:31;22.70;99.90
21429;DHT22;10875;50.444;30.540;2022-08-07T00:34:57;22.70;99.90
21429;DHT22;10875;50.444;30.540;2022-08-07T00:37:23;22.70;99.90
21429;DHT22;10875;50.444;30.540;2022-08-07T00:39:50;22.70;99.90
21429;DHT22;10875;50.444;30.540;2022-08-07T00:42:19;22.70;99.90
21429;DHT22;10875;50.444;30.540;2022-08-07T00:44:45;22.70;99.90
21429;DHT22;10875;50.444;30.540;2022-08-07T00:47:11;22.70;99.90
21429;DHT22;10875;50.444;30.540;2022-08-07T00:49:36;22.70;99.90
21429;DHT22;10875;50.444;30.540;2022-08-07T00:52:05;22.60;99.90
21429;DHT22;10875;50.444;30.540;2022-08-07T00:54:31;22.60;99.90
21429;DHT22;10875;50.444;30.540;2022-08-07T00:56:57;22.50;99.90
21429;DHT22;10875;50.444;30.540;2022-08-07T00:59:22;22.50;99.90
21429;DHT22;10875;50.444;30.540;2022-08-07T01:01:48;22.50;99.90
21429;DHT22;10875;50.444;30.540;2022-08-07T01:04:15;22.50;99.90
21429;DHT22;10875;50.444;30.540;2022-08-07T01:06:41;22.40;99.90
21429;DHT22;10875;50.444;30.540;2022-08-07T01:09:07;22.40;99.90
21429;DHT22;10875;50.444;30.540;2022-08-07T01:11:33;22.30;99.90
21429;DHT22;10875;50.444;30.540;2022-08-07T01:14:00;22.30;99.90
21429;DHT22;10875;50.444;30.540;2022-08-07T01:16:26;22.20;99.90
21429;DHT22;10875;50.444;30.540;2022-08-07T01:18:53;22.30;99.90
21429;DHT22;10875;50.444;30.540;2022-08-07T01:21:19;22.30;99.90
21429;DHT22;10875;50.444;30.540;2022-08-07T01:23:46;22.20;99.90
21429;DHT22;10875;50.444;30.540;2022-08-07T01:26:14;22.10;99.90
21429;DHT22;10875;50.444;30.540;2022-08-07T01:28:44;22.20;99.90
21429;DHT22;10875;50.444;30.540;2022-08-07T01:31:11;22.20;99.90
21429;DHT22;10875;50.444;30.540;2022-08-07T01:33:37;22.20;99.90
21429;DHT22;10875;50.444;30.540;2022-08-07T01:36:03;22.20;99.90
21429;DHT22;10875;50.444;30.540;2022-08-07T01:38:29;22.20;99.90
21429;DHT22;10875;50.444;30.540;2022-08-07T01:40:59;22.20;99.90
21429;DHT22;10875;50.444;30.540;2022-08-07T01:43:27;22.20;99.90
21429;DHT22;10875;50.444;30.540;2022-08-07T01:45:54;22.20;99.90
21429;DHT22;10875;50.444;30.540;2022-08-07T01:48:20;22.20;99.90
21429;DHT22;10875;50.444;30.540;2022-08-07T01:50:49;22.10;99.90
21429;DHT22;10875;50.444;30.540;2022-08-07T01:53:19;22.10;99.90
21429;DHT22;10875;50.444;30.540;2022-08-07T01:55:49;22.00;99.90
21429;DHT22;10875;50.444;30.540;2022-08-07T01:58:19;22.00;99.90
21429;DHT22;10875;50.444;30.540;2022-08-07T02:00:52;21.90;99.90
21429;DHT22;10875;50.444;30.540;2022-08-07T02:03:20;22.00;99.90
21429;DHT22;10875;50.444;30.540;2022-08-07T02:05:51;21.90;99.90
21429;DHT22;10875;50.444;30.540;2022-08-07T02:08:22;21.90;99.90
21429;DHT22;10875;50.444;30.540;2022-08-07T02:10:48;21.80;99.90
21429;DHT22;10875;50.444;30.540;2022-08-07T02:13:20;21.80;99.90
21429;DHT22;10875;50.444;30.540;2022-08-07T02:15:48;21.80;99.90
21429;DHT22;10875;50.444;30.540;2022-08-07T02:18:14;21.70;99.90
21429;DHT22;10875;50.444;30.540;2022-08-07T02:20:42;21.70;99.90
21429;DHT22;10875;50.444;30.540;2022-08-07T02:23:09;21.70;99.90
21429;DHT22;10875;50.444;30.540;2022-08-07T02:25:37;21.60;99.90
21429;DHT22;10875;50.444;30.540;2022-08-07T02:28:05;21.70;99.90
21429;DHT22;10875;50.444;30.540;2022-08-07T02:30:33;21.70;99.90
21429;DHT22;10875;50.444;30.540;2022-08-07T02:33:00;21.70;99.90
21429;DHT22;10875;50.444;30.540;2022-08-07T02:35:27;21.60;99.90
21429;DHT22;10875;50.444;30.540;2022-08-07T02:37:56;21.70;99.90
21429;DHT22;10875;50.444;30.540;2022-08-07T02:40:22;21.70;99.90
21429;DHT22;10875;50.444;30.540;2022-08-07T02:42:49;21.70;99.90
21429;DHT22;10875;50.444;30.540;2022-08-07T02:45:15;21.70;99.90
21429;DHT22;10875;50.444;30.540;2022-08-07T02:47:41;21.70;99.90
21429;DHT22;10875;50.444;30.540;2022-08-07T02:50:08;21.70;99.90
21429;DHT22;10875;50.444;30.540;2022-08-07T02:52:40;21.70;99.90
21429;DHT22;10875;50.444;30.540;2022-08-07T02:55:19;21.70;99.90
21429;DHT22;10875;50.444;30.540;2022-08-07T02:57:46;21.70;99.90
21429;DHT22;10875;50.444;30.540;2022-08-07T03:00:12;21.80;99.90
21429;DHT22;10875;50.444;30.540;2022-08-07T03:02:39;21.80;99.90
21429;DHT22;10875;50.444;30.540;2022-08-07T03:05:06;21.80;99.90
21429;DHT22;10875;50.444;30.540;2022-08-07T03:07:32;21.90;99.90
21429;DHT22;10875;50.444;30.540;2022-08-07T03:09:59;21.90;99.90
21429;DHT22;10875;50.444;30.540;2022-08-07T03:12:26;21.90;99.90
21429;DHT22;10875;50.444;30.540;2022-08-07T03:14:53;21.90;99.90
21429;DHT22;10875;50.444;30.540;2022-08-07T03:17:20;22.00;99.90
21429;DHT22;10875;50.444;30.540;2022-08-07T03:19:47;22.00;99.90
21429;DHT22;10875;50.444;30.540;2022-08-07T03:22:13;22.10;99.90
21429;DHT22;10875;50.444;30.540;2022-08-07T03:24:39;22.10;99.90
21429;DHT22;10875;50.444;30.540;2022-08-07T03:27:06;22.10;99.90
21429;DHT22;10875;50.444;30.540;2022-08-07T03:29:44;22.20;99.90
21429;DHT22;10875;50.444;30.540;2022-08-07T03:32:11;22.20;99.90
21429;DHT22;10875;50.444;30.540;2022-08-07T03:34:40;22.20;99.90
21429;DHT22;10875;50.444;30.540;2022-08-07T03:37:08;22.30;99.90
21429;DHT22;10875;50.444;30.540;2022-08-07T03:39:35;22.30;99.90
21429;DHT22;10875;50.444;30.540;2022-08-07T03:42:03;22.30;99.90
21429;DHT22;10875;50.444;30.540;2022-08-07T03:44:35;22.30;99.90
21429;DHT22;10875;50.444;30.540;2022-08-07T03:47:01;22.30;99.90
21429;DHT22;10875;50.444;30.540;2022-08-07T03:49:28;22.40;99.90
21429;DHT22;10875;50.444;30.540;2022-08-07T03:51:56;22.50;99.90
21429;DHT22;10875;50.444;30.540;2022-08-07T03:54:21;22.50;99.90
21429;DHT22;10875;50.444;30.540;2022-08-07T03:56:48;22.50;99.90
21429;DHT22;10875;50.444;30.540;2022-08-07T03:59:15;22.60;99.90
21429;DHT22;10875;50.444;30.540;2022-08-07T04:01:42;22.60;99.90
21429;DHT22;10875;50.444;30.540;2022-08-07T04:04:09;22.60;99.90
21429;DHT22;10875;50.444;30.540;2022-08-07T04:06:38;22.60;99.90
21429;DHT22;10875;50.444;30.540;2022-08-07T04:09:08;22.60;99.90
21429;DHT22;10875;50.444;30.540;2022-08-07T04:11:34;22.70;99.90
21429;DHT22;10875;50.444;30.540;2022-08-07T04:14:01;22.70;99.90
21429;DHT22;10875;50.444;30.540;2022-08-07T04:16:27;22.70;99.90
21429;DHT22;10875;50.444;30.540;2022-08-07T04:18:53;22.70;99.90
21429;DHT22;10875;50.444;30.540;2022-08-07T04:21:19;22.70;99.90
21429;DHT22;10875;50.444;30.540;2022-08-07T04:23:45;22.70;99.90
21429;DHT22;10875;50.444;30.540;2022-08-07T04:26:12;22.70;99.90
21429;DHT22;10875;50.444;30.540;2022-08-07T04:28:39;22.70;99.90
21429;DHT22;10875;50.444;30.540;2022-08-07T04:31:05;22.80;99.90
21429;DHT22;10875;50.444;30.540;2022-08-07T04:33:31;22.80;99.90
21429;DHT22;10875;50.444;30.540;2022-08-07T04:35:58;22.90;99.90
21429;DHT22;10875;50.444;30.540;2022-08-07T04:38:24;22.90;99.90
21429;DHT22;10875;50.444;30.540;2022-08-07T04:40:50;22.90;99.90
21429;DHT22;10875;50.444;30.540;2022-08-07T04:43:18;22.90;99.90
21429;DHT22;10875;50.444;30.540;2022-08-07T04:59:36;23.20;99.90
21429;DHT22;10875;50.444;30.540;2022-08-07T05:02:32;23.30;99.90
21429;DHT22;10875;50.444;30.540;2022-08-07T05:08:03;23.50;99.90
21429;DHT22;10875;50.444;30.540;2022-08-07T05:10:37;23.50;99.90
21429;DHT22;10875;50.444;30.540;2022-08-07T05:13:10;23.60;99.90
21429;DHT22;10875;50.444;30.540;2022-08-07T05:15:42;23.70;99.90
21429;DHT22;10875;50.444;30.540;2022-08-07T05:18:15;23.70;99.90
21429;DHT22;10875;50.444;30.540;2022-08-07T05:20:46;23.80;99.90
21429;DHT22;10875;50.444;30.540;2022-08-07T05:23:19;23.90;99.90
21429;DHT22;10875;50.444;30.540;2022-08-07T05:25:45;24.00;99.90
21429;DHT22;10875;50.444;30.540;2022-08-07T05:28:13;24.10;99.90
21429;DHT22;10875;50.444;30.540;2022-08-07T05:30:40;24.10;99.90
21429;DHT22;10875;50.444;30.540;2022-08-07T05:33:07;24.00;99.90
21429;DHT22;10875;50.444;30.540;2022-08-07T05:35:35;24.00;99.90
21429;DHT22;10875;50.444;30.540;2022-08-07T05:38:03;24.00;99.90
21429;DHT22;10875;50.444;30.540;2022-08-07T05:40:31;24.10;99.90
21429;DHT22;10875;50.444;30.540;2022-08-07T05:42:57;24.10;99.90
21429;DHT22;10875;50.444;30.540;2022-08-07T05:45:27;24.20;99.90
21429;DHT22;10875;50.444;30.540;2022-08-07T05:47:56;24.20;99.90
21429;DHT22;10875;50.444;30.540;2022-08-07T05:50:22;24.20;99.90
21429;DHT22;10875;50.444;30.540;2022-08-07T05:52:48;24.30;99.90
21429;DHT22;10875;50.444;30.540;2022-08-07T05:55:13;24.30;99.90
21429;DHT22;10875;50.444;30.540;2022-08-07T05:57:40;24.20;99.90
21429;DHT22;10875;50.444;30.540;2022-08-07T06:00:07;24.30;99.90
21429;DHT22;10875;50.444;30.540;2022-08-07T06:02:35;24.30;99.90
21429;DHT22;10875;50.444;30.540;2022-08-07T06:05:10;24.30;99.90
21429;DHT22;10875;50.444;30.540;2022-08-07T06:07:36;24.30;99.90
21429;DHT22;10875;50.444;30.540;2022-08-07T06:10:03;24.40;99.90
21429;DHT22;10875;50.444;30.540;2022-08-07T06:12:28;24.40;99.90
21429;DHT22;10875;50.444;30.540;2022-08-07T06:14:57;24.50;99.90
21429;DHT22;10875;50.444;30.540;2022-08-07T06:17:23;24.60;99.90
21429;DHT22;10875;50.444;30.540;2022-08-07T06:19:49;24.60;99.90
21429;DHT22;10875;50.444;30.540;2022-08-07T06:22:16;24.70;99.90
21429;DHT22;10875;50.444;30.540;2022-08-07T06:24:44;24.80;99.90
21429;DHT22;10875;50.444;30.540;2022-08-07T06:27:12;24.80;99.90
21429;DHT22;10875;50.444;30.540;2022-08-07T06:29:43;24.80;99.90
21429;DHT22;10875;50.444;30.540;2022-08-07T06:32:09;24.90;99.90
21429;DHT22;10875;50.444;30.540;2022-08-07T06:34:35;24.90;99.90
21429;DHT22;10875;50.444;30.540;2022-08-07T06:37:00;25.00;99.90
21429;DHT22;10875;50.444;30.540;2022-08-07T06:39:26;25.00;99.90
21429;DHT22;10875;50.444;30.540;2022-08-07T06:42:02;25.00;99.90
21429;DHT22;10875;50.444;30.540;2022-08-07T06:44:29;25.10;99.90
21429;DHT22;10875;50.444;30.540;2022-08-07T06:46:56;25.20;99.90
21429;DHT22;10875;50.444;30.540;2022-08-07T06:49:21;25.20;99.90
21429;DHT22;10875;50.444;30.540;2022-08-07T06:51:47;25.30;99.90
21429;DHT22;10875;50.444;30.540;2022-08-07T06:54:14;25.30;99.90
21429;DHT22;10875;50.444;30.540;2022-08-07T06:56:42;25.30;99.90
21429;DHT22;10875;50.444;30.540;2022-08-07T06:59:14;25.40;99.90
21429;DHT22;10875;50.444;30.540;2022-08-07T07:01:41;25.90;99.90
21429;DHT22;10875;50.444;30.540;2022-08-07T07:04:08;25.40;99.90
21429;DHT22;10875;50.444;30.540;2022-08-07T07:06:34;25.40;99.90
21429;DHT22;10875;50.444;30.540;2022-08-07T07:09:21;25.50;99.90
21429;DHT22;10875;50.444;30.540;2022-08-07T07:20:07;25.70;99.90
21429;DHT22;10875;50.444;30.540;2022-08-07T07:22:35;25.80;99.90
21429;DHT22;10875;50.444;30.540;2022-08-07T07:25:02;25.80;99.90
21429;DHT22;10875;50.444;30.540;2022-08-07T07:27:32;25.90;99.90
21429;DHT22;10875;50.444;30.540;2022-08-07T07:30:02;25.90;99.90
21429;DHT22;10875;50.444;30.540;2022-08-07T07:32:30;26.00;99.90
21429;DHT22;10875;50.444;30.540;2022-08-07T07:34:59;26.10;99.90
21429;DHT22;10875;50.444;30.540;2022-08-07T07:37:28;26.20;99.90
21429;DHT22;10875;50.444;30.540;2022-08-07T07:39:57;26.20;99.90
21429;DHT22;10875;50.444;30.540;2022-08-07T07:42:25;26.30;99.90
21429;DHT22;10875;50.444;30.540;2022-08-07T07:44:53;26.40;99.90
21429;DHT22;10875;50.444;30.540;2022-08-07T07:47:20;26.50;99.90
21429;DHT22;10875;50.444;30.540;2022-08-07T07:49:48;26.50;99.90
21429;DHT22;10875;50.444;30.540;2022-08-07T07:52:16;26.60;99.90
21429;DHT22;10875;50.444;30.540;2022-08-07T07:54:44;26.70;99.90
21429;DHT22;10875;50.444;30.540;2022-08-07T07:57:11;26.70;99.90
21429;DHT22;10875;50.444;30.540;2022-08-07T07:59:40;26.80;99.90
21429;DHT22;10875;50.444;30.540;2022-08-07T08:02:08;26.90;99.90
21429;DHT22;10875;50.444;30.540;2022-08-07T08:04:36;27.00;99.90
21429;DHT22;10875;50.444;30.540;2022-08-07T08:07:02;27.10;99.90
21429;DHT22;10875;50.444;30.540;2022-08-07T08:09:29;27.20;99.90
21429;DHT22;10875;50.444;30.540;2022-08-07T08:11:57;27.30;99.90
21429;DHT22;10875;50.444;30.540;2022-08-07T08:14:23;27.50;99.90
21429;DHT22;10875;50.444;30.540;2022-08-07T08:16:50;27.70;99.90
21429;DHT22;10875;50.444;30.540;2022-08-07T08:19:21;27.80;99.90
21429;DHT22;10875;50.444;30.540;2022-08-07T08:21:49;27.90;99.90
21429;DHT22;10875;50.444;30.540;2022-08-07T08:24:41;28.00;99.90
21429;DHT22;10875;50.444;30.540;2022-08-07T08:27:31;28.10;99.90
21429;DHT22;10875;50.444;30.540;2022-08-07T08:30:08;28.20;99.90
21429;DHT22;10875;50.444;30.540;2022-08-07T08:32:48;28.40;99.90
21429;DHT22;10875;50.444;30.540;2022-08-07T08:35:21;28.60;99.90
21429;DHT22;10875;50.444;30.540;2022-08-07T08:37:48;28.70;99.90
21429;DHT22;10875;50.444;30.540;2022-08-07T08:40:22;28.90;99.90
21429;DHT22;10875;50.444;30.540;2022-08-07T08:42:59;29.00;99.90
21429;DHT22;10875;50.444;30.540;2022-08-07T08:45:52;29.10;99.90
21429;DHT22;10875;50.444;30.540;2022-08-07T08:49:00;29.20;99.90
21429;DHT22;10875;50.444;30.540;2022-08-07T08:51:38;29.40;99.90
21429;DHT22;10875;50.444;30.540;2022-08-07T08:54:19;29.60;99.90
21429;DHT22;10875;50.444;30.540;2022-08-07T08:56:48;29.90;99.90
21429;DHT22;10875;50.444;30.540;2022-08-07T08:59:26;30.00;99.90
21429;DHT22;10875;50.444;30.540;2022-08-07T09:04:52;30.30;99.90
21429;DHT22;10875;50.444;30.540;2022-08-07T09:10:30;30.60;99.90
21429;DHT22;10875;50.444;30.540;2022-08-07T09:21:34;30.90;99.90
21429;DHT22;10875;50.444;30.540;2022-08-07T09:43:25;30.60;99.90
21429;DHT22;10875;50.444;30.540;2022-08-07T09:51:59;29.30;99.90
21429;DHT22;10875;50.444;30.540;2022-08-07T09:54:43;29.20;99.90
21429;DHT22;10875;50.444;30.540;2022-08-07T10:00:08;29.00;99.90
21429;DHT22;10875;50.444;30.540;2022-08-07T10:20:11;30.90;99.90
21429;DHT22;10875;50.444;30.540;2022-08-07T10:23:19;31.00;99.90
21429;DHT22;10875;50.444;30.540;2022-08-07T10:31:55;29.20;99.90
21429;DHT22;10875;50.444;30.540;2022-08-07T10:37:51;28.40;99.90
21429;DHT22;10875;50.444;30.540;2022-08-07T10:40:26;28.10;99.90
21429;DHT22;10875;50.444;30.540;2022-08-07T10:45:57;27.90;99.90
21429;DHT22;10875;50.444;30.540;2022-08-07T10:54:10;27.30;99.90
21429;DHT22;10875;50.444;30.540;2022-08-07T10:56:57;27.20;99.90
21429;DHT22;10875;50.444;30.540;2022-08-07T11:10:51;26.70;99.90
21429;DHT22;10875;50.444;30.540;2022-08-07T11:13:40;26.60;99.90
21429;DHT22;10875;50.444;30.540;2022-08-07T11:16:07;26.60;99.90
21429;DHT22;10875;50.444;30.540;2022-08-07T11:18:41;26.60;99.90
21429;DHT22;10875;50.444;30.540;2022-08-07T11:21:37;26.50;99.90
21429;DHT22;10875;50.444;30.540;2022-08-07T11:27:14;26.40;99.90
21429;DHT22;10875;50.444;30.540;2022-08-07T11:29:50;26.40;99.90
21429;DHT22;10875;50.444;30.540;2022-08-07T11:32:22;26.30;99.90
21429;DHT22;10875;50.444;30.540;2022-08-07T11:34:56;26.10;99.90
21429;DHT22;10875;50.444;30.540;2022-08-07T11:42:58;25.90;99.90
21429;DHT22;10875;50.444;30.540;2022-08-07T11:53:51;25.80;99.90
21429;DHT22;10875;50.444;30.540;2022-08-07T11:56:40;25.70;99.90
21429;DHT22;10875;50.444;30.540;2022-08-07T11:59:40;25.70;99.90
21429;DHT22;10875;50.444;30.540;2022-08-07T12:02:19;25.60;99.90
21429;DHT22;10875;50.444;30.540;2022-08-07T12:08:10;25.60;99.90
21429;DHT22;10875;50.444;30.540;2022-08-07T12:15:54;25.10;99.90
21429;DHT22;10875;50.444;30.540;2022-08-07T12:18:39;24.90;99.90
21429;DHT22;10875;50.444;30.540;2022-08-07T12:21:31;24.70;99.90
21429;DHT22;10875;50.444;30.540;2022-08-07T12:24:08;24.60;99.90
21429;DHT22;10875;50.444;30.540;2022-08-07T12:26:52;24.40;99.90
21429;DHT22;10875;50.444;30.540;2022-08-07T12:29:40;24.20;99.90
21429;DHT22;10875;50.444;30.540;2022-08-07T12:32:14;24.10;99.90
21429;DHT22;10875;50.444;30.540;2022-08-07T12:34:43;23.90;99.90
21429;DHT22;10875;50.444;30.540;2022-08-07T12:37:10;23.80;99.90
21429;DHT22;10875;50.444;30.540;2022-08-07T12:39:39;23.70;99.90
21429;DHT22;10875;50.444;30.540;2022-08-07T12:42:06;23.70;99.90
21429;DHT22;10875;50.444;30.540;2022-08-07T12:44:35;23.70;99.90
21429;DHT22;10875;50.444;30.540;2022-08-07T12:49:36;23.40;99.90
21429;DHT22;10875;50.444;30.540;2022-08-07T12:52:12;23.20;99.90
21429;DHT22;10875;50.444;30.540;2022-08-07T12:54:58;23.00;99.90
21429;DHT22;10875;50.444;30.540;2022-08-07T12:57:30;22.80;99.90
21429;DHT22;10875;50.444;30.540;2022-08-07T12:59:58;22.60;99.90
21429;DHT22;10875;50.444;30.540;2022-08-07T13:11:38;22.30;99.90
21429;DHT22;10875;50.444;30.540;2022-08-07T13:14:20;22.40;99.90
21429;DHT22;10875;50.444;30.540;2022-08-07T13:17:02;22.30;99.90
21429;DHT22;10875;50.444;30.540;2022-08-07T13:19:42;22.30;99.90
21429;DHT22;10875;50.444;30.540;2022-08-07T13:22:25;22.20;99.90
21429;DHT22;10875;50.444;30.540;2022-08-07T13:25:16;22.20;99.90
21429;DHT22;10875;50.444;30.540;2022-08-07T13:27:54;22.20;99.90
21429;DHT22;10875;50.444;30.540;2022-08-07T13:30:21;22.10;99.90
21429;DHT22;10875;50.444;30.540;2022-08-07T13:32:54;22.00;99.90
21429;DHT22;10875;50.444;30.540;2022-08-07T13:43:54;21.80;99.90
21429;DHT22;10875;50.444;30.540;2022-08-07T13:46:28;21.70;99.90
21429;DHT22;10875;50.444;30.540;2022-08-07T13:48:56;21.70;99.90
21429;DHT22;10875;50.444;30.540;2022-08-07T13:51:24;21.70;99.90
21429;DHT22;10875;50.444;30.540;2022-08-07T13:53:51;21.70;99.90
21429;DHT22;10875;50.444;30.540;2022-08-07T13:56:20;21.70;99.90
21429;DHT22;10875;50.444;30.540;2022-08-07T13:58:50;21.70;99.90
21429;DHT22;10875;50.444;30.540;2022-08-07T14:01:31;21.60;99.90
21429;DHT22;10875;50.444;30.540;2022-08-07T14:03:57;21.60;99.90
21429;DHT22;10875;50.444;30.540;2022-08-07T14:06:31;21.60;99.90
21429;DHT22;10875;50.444;30.540;2022-08-07T14:08:59;21.50;99.90
21429;DHT22;10875;50.444;30.540;2022-08-07T14:11:27;21.50;99.90
21429;DHT22;10875;50.444;30.540;2022-08-07T14:13:57;21.50;99.90
21429;DHT22;10875;50.444;30.540;2022-08-07T14:16:32;21.40;99.90
21429;DHT22;10875;50.444;30.540;2022-08-07T14:19:00;21.40;99.90
21429;DHT22;10875;50.444;30.540;2022-08-07T14:21:48;21.40;99.90
21429;DHT22;10875;50.444;30.540;2022-08-07T14:26:54;21.30;99.90
21429;DHT22;10875;50.444;30.540;2022-08-07T14:29:28;21.20;99.90
21429;DHT22;10875;50.444;30.540;2022-08-07T14:31:59;21.20;99.90
21429;DHT22;10875;50.444;30.540;2022-08-07T14:34:28;21.20;99.90
21429;DHT22;10875;50.444;30.540;2022-08-07T14:36:55;21.10;99.90
21429;DHT22;10875;50.444;30.540;2022-08-07T14:39:21;21.00;99.90
21429;DHT22;10875;50.444;30.540;2022-08-07T14:41:49;21.10;99.90
21429;DHT22;10875;50.444;30.540;2022-08-07T14:44:16;21.00;99.90
21429;DHT22;10875;50.444;30.540;2022-08-07T14:46:44;20.90;99.90
21429;DHT22;10875;50.444;30.540;2022-08-07T14:49:11;20.80;99.90
21429;DHT22;10875;50.444;30.540;2022-08-07T14:51:37;20.80;99.90
21429;DHT22;10875;50.444;30.540;2022-08-07T14:54:06;20.80;99.90
21429;DHT22;10875;50.444;30.540;2022-08-07T14:56:33;20.80;99.90
21429;DHT22;10875;50.444;30.540;2022-08-07T14:59:06;20.80;99.90
21429;DHT22;10875;50.444;30.540;2022-08-07T15:01:35;20.80;99.90
21429;DHT22;10875;50.444;30.540;2022-08-07T15:04:03;20.70;99.90
21429;DHT22;10875;50.444;30.540;2022-08-07T15:06:33;20.70;99.90
21429;DHT22;10875;50.444;30.540;2022-08-07T15:09:08;20.80;99.90
21429;DHT22;10875;50.444;30.540;2022-08-07T15:11:51;20.80;99.90
21429;DHT22;10875;50.444;30.540;2022-08-07T15:14:22;20.70;99.90
21429;DHT22;10875;50.444;30.540;2022-08-07T15:17:15;20.70;99.90
21429;DHT22;10875;50.444;30.540;2022-08-07T15:19:50;20.80;99.90
21429;DHT22;10875;50.444;30.540;2022-08-07T15:22:17;20.80;99.90
21429;DHT22;10875;50.444;30.540;2022-08-07T15:24:48;20.80;99.90
21429;DHT22;10875;50.444;30.540;2022-08-07T15:27:18;20.80;99.90
21429;DHT22;10875;50.444;30.540;2022-08-07T15:29:49;20.70;99.90
21429;DHT22;10875;50.444;30.540;2022-08-07T15:32:15;20.80;99.90
21429;DHT22;10875;50.444;30.540;2022-08-07T15:34:51;20.80;99.90
21429;DHT22;10875;50.444;30.540;2022-08-07T15:37:23;20.80;99.90
21429;DHT22;10875;50.444;30.540;2022-08-07T15:39:53;20.80;99.90
21429;DHT22;10875;50.444;30.540;2022-08-07T15:42:53;20.80;99.90
21429;DHT22;10875;50.444;30.540;2022-08-07T15:47:52;20.80;99.90
21429;DHT22;10875;50.444;30.540;2022-08-07T15:50:20;20.80;99.90
21429;DHT22;10875;50.444;30.540;2022-08-07T15:52:46;20.80;99.90
21429;DHT22;10875;50.444;30.540;2022-08-07T15:55:17;20.70;99.90
21429;DHT22;10875;50.444;30.540;2022-08-07T15:57:46;20.70;99.90
21429;DHT22;10875;50.444;30.540;2022-08-07T16:00:20;20.70;99.90
21429;DHT22;10875;50.444;30.540;2022-08-07T16:02:48;20.80;99.90
21429;DHT22;10875;50.444;30.540;2022-08-07T16:05:19;20.80;99.90
21429;DHT22;10875;50.444;30.540;2022-08-07T16:07:52;20.80;99.90
21429;DHT22;10875;50.444;30.540;2022-08-07T16:10:20;20.80;99.90
21429;DHT22;10875;50.444;30.540;2022-08-07T16:23:51;20.60;99.90
21429;DHT22;10875;50.444;30.540;2022-08-07T16:29:01;20.50;99.90
21429;DHT22;10875;50.444;30.540;2022-08-07T16:32:02;20.50;99.90
21429;DHT22;10875;50.444;30.540;2022-08-07T17:05:15;20.30;99.90
21429;DHT22;10875;50.444;30.540;2022-08-07T17:07:51;20.20;99.90
21429;DHT22;10875;50.444;30.540;2022-08-07T17:12:58;20.30;99.90
21429;DHT22;10875;50.444;30.540;2022-08-07T17:15:31;20.30;99.90
21429;DHT22;10875;50.444;30.540;2022-08-07T17:18:02;20.20;99.90
21429;DHT22;10875;50.444;30.540;2022-08-07T17:20:37;20.30;99.90
21429;DHT22;10875;50.444;30.540;2022-08-07T17:26:17;20.20;99.90
21429;DHT22;10875;50.444;30.540;2022-08-07T17:29:13;20.20;99.90
21429;DHT22;10875;50.444;30.540;2022-08-07T17:31:55;20.20;99.90
21429;DHT22;10875;50.444;30.540;2022-08-07T17:34:27;20.20;99.90
21429;DHT22;10875;50.444;30.540;2022-08-07T17:36:59;20.20;99.90
21429;DHT22;10875;50.444;30.540;2022-08-07T17:42:43;20.20;99.90
21429;DHT22;10875;50.444;30.540;2022-08-07T17:45:39;20.20;99.90
21429;DHT22;10875;50.444;30.540;2022-08-07T17:48:19;20.30;99.90
21429;DHT22;10875;50.444;30.540;2022-08-07T17:50:52;20.20;99.90
21429;DHT22;10875;50.444;30.540;2022-08-07T17:53:41;20.20;99.90
21429;DHT22;10875;50.444;30.540;2022-08-07T18:01:27;20.20;99.90
21429;DHT22;10875;50.444;30.540;2022-08-07T18:06:38;20.30;99.90
21429;DHT22;10875;50.444;30.540;2022-08-07T18:09:05;20.20;99.90
21429;DHT22;10875;50.444;30.540;2022-08-07T18:11:49;20.20;99.90
21429;DHT22;10875;50.444;30.540;2022-08-07T18:14:45;20.30;99.90
21429;DHT22;10875;50.444;30.540;2022-08-07T18:19:44;20.20;99.90
21429;DHT22;10875;50.444;30.540;2022-08-07T18:22:26;20.10;99.90
21429;DHT22;10875;50.444;30.540;2022-08-07T18:24:55;20.00;99.90
21429;DHT22;10875;50.444;30.540;2022-08-07T18:30:01;20.00;99.90
21429;DHT22;10875;50.444;30.540;2022-08-07T18:35:31;20.00;99.90
21429;DHT22;10875;50.444;30.540;2022-08-07T18:43:10;19.90;99.90
21429;DHT22;10875;50.444;30.540;2022-08-07T18:45:53;20.00;99.90
21429;DHT22;10875;50.444;30.540;2022-08-07T18:48:27;19.90;99.90
21429;DHT22;10875;50.444;30.540;2022-08-07T18:51:02;19.90;99.90
21429;DHT22;10875;50.444;30.540;2022-08-07T19:04:51;19.90;99.90
21429;DHT22;10875;50.444;30.540;2022-08-07T19:10:41;19.90;99.90
21429;DHT22;10875;50.444;30.540;2022-08-07T19:16:13;19.90;99.90
21429;DHT22;10875;50.444;30.540;2022-08-07T19:18:47;19.90;99.90
21429;DHT22;10875;50.444;30.540;2022-08-07T19:21:44;19.90;99.90
21429;DHT22;10875;50.444;30.540;2022-08-07T19:24:17;19.90;99.90
21429;DHT22;10875;50.444;30.540;2022-08-07T19:26:49;19.90;99.90
21429;DHT22;10875;50.444;30.540;2022-08-07T19:29:17;19.90;99.90
21429;DHT22;10875;50.444;30.540;2022-08-07T19:31:47;19.80;99.90
21429;DHT22;10875;50.444;30.540;2022-08-07T19:34:17;19.80;99.90
21429;DHT22;10875;50.444;30.540;2022-08-07T19:36:47;19.80;99.90
21429;DHT22;10875;50.444;30.540;2022-08-07T19:39:17;19.80;99.90
21429;DHT22;10875;50.444;30.540;2022-08-07T19:41:45;19.80;99.90
21429;DHT22;10875;50.444;30.540;2022-08-07T19:44:12;19.70;99.90
21429;DHT22;10875;50.444;30.540;2022-08-07T19:46:45;19.70;99.90
21429;DHT22;10875;50.444;30.540;2022-08-07T19:49:15;19.70;99.90
21429;DHT22;10875;50.444;30.540;2022-08-07T19:51:41;19.60;99.90
21429;DHT22;10875;50.444;30.540;2022-08-07T19:54:08;19.80;99.90
21429;DHT22;10875;50.444;30.540;2022-08-07T19:56:40;19.80;99.90